sensor_id;sensor_type;location;lat;lon;timestamp;P1;durP1;ratioP1;P2;durP2;ratioP2
35380;SDS011;21486;51.916;8.378;2023-08-06T00:33:01;8.02;;;5.10;;
35380;SDS011;21486;51.916;8.378;2023-08-06T00:35:27;8.30;;;5.40;;
35380;SDS011;21486;51.916;8.378;2023-08-06T00:37:52;9.15;;;4.85;;
35380;SDS011;21486;51.916;8.378;2023-08-06T00:40:19;6.60;;;4.73;;
35380;SDS011;21486;51.916;8.378;2023-08-06T00:42:46;11.05;;;5.20;;
35380;SDS011;21486;51.916;8.378;2023-08-06T00:45:12;8.10;;;4.83;;
35380;SDS011;21486;51.916;8.378;2023-08-06T00:47:37;9.83;;;5.10;;
35380;SDS011;21486;51.916;8.378;2023-08-06T00:50:04;8.77;;;5.18;;
35380;SDS011;21486;51.916;8.378;2023-08-06T00:52:32;8.05;;;5.30;;
35380;SDS011;21486;51.916;8.378;2023-08-06T00:54:57;9.95;;;5.75;;
35380;SDS011;21486;51.916;8.378;2023-08-06T00:57:24;11.17;;;7.90;;
35380;SDS011;21486;51.916;8.378;2023-08-06T00:59:50;12.00;;;6.65;;
35380;SDS011;21486;51.916;8.378;2023-08-06T01:02:16;9.73;;;6.32;;
35380;SDS011;21486;51.916;8.378;2023-08-06T01:04:42;10.07;;;5.80;;
35380;SDS011;21486;51.916;8.378;2023-08-06T01:12:59;6.40;;;4.93;;
35380;SDS011;21486;51.916;8.378;2023-08-06T01:16:07;6.43;;;4.60;;
35380;SDS011;21486;51.916;8.378;2023-08-06T01:18:35;6.72;;;4.38;;
35380;SDS011;21486;51.916;8.378;2023-08-06T01:21:02;6.23;;;4.43;;
35380;SDS011;21486;51.916;8.378;2023-08-06T01:23:28;7.13;;;4.10;;
35380;SDS011;21486;51.916;8.378;2023-08-06T01:25:56;6.82;;;4.18;;
35380;SDS011;21486;51.916;8.378;2023-08-06T01:31:46;10.82;;;4.90;;
35380;SDS011;21486;51.916;8.378;2023-08-06T01:34:22;6.65;;;3.90;;
35380;SDS011;21486;51.916;8.378;2023-08-06T01:36:52;6.75;;;4.35;;
35380;SDS011;21486;51.916;8.378;2023-08-06T01:39:18;10.75;;;4.55;;
35380;SDS011;21486;51.916;8.378;2023-08-06T01:41:47;8.73;;;4.13;;
35380;SDS011;21486;51.916;8.378;2023-08-06T01:44:13;6.17;;;3.93;;
35380;SDS011;21486;51.916;8.378;2023-08-06T01:46:39;7.75;;;4.35;;
35380;SDS011;21486;51.916;8.378;2023-08-06T01:49:05;7.17;;;4.27;;
35380;SDS011;21486;51.916;8.378;2023-08-06T01:51:30;7.72;;;4.15;;
35380;SDS011;21486;51.916;8.378;2023-08-06T01:53:56;5.50;;;4.00;;
35380;SDS011;21486;51.916;8.378;2023-08-06T01:56:21;9.33;;;4.43;;
35380;SDS011;21486;51.916;8.378;2023-08-06T01:58:47;6.07;;;4.32;;
35380;SDS011;21486;51.916;8.378;2023-08-06T02:01:12;5.70;;;4.23;;
35380;SDS011;21486;51.916;8.378;2023-08-06T02:03:38;6.03;;;3.83;;
35380;SDS011;21486;51.916;8.378;2023-08-06T02:06:03;5.80;;;4.32;;
35380;SDS011;21486;51.916;8.378;2023-08-06T02:08:29;8.03;;;4.63;;
35380;SDS011;21486;51.916;8.378;2023-08-06T02:10:54;7.20;;;4.40;;
35380;SDS011;21486;51.916;8.378;2023-08-06T02:13:20;7.95;;;4.00;;
35380;SDS011;21486;51.916;8.378;2023-08-06T02:15:46;5.90;;;4.30;;
35380;SDS011;21486;51.916;8.378;2023-08-06T02:18:15;5.85;;;4.07;;
35380;SDS011;21486;51.916;8.378;2023-08-06T02:20:41;6.28;;;4.35;;
35380;SDS011;21486;51.916;8.378;2023-08-06T02:23:07;7.25;;;4.32;;
35380;SDS011;21486;51.916;8.378;2023-08-06T02:25:32;6.20;;;4.43;;
35380;SDS011;21486;51.916;8.378;2023-08-06T02:27:58;9.17;;;4.67;;
35380;SDS011;21486;51.916;8.378;2023-08-06T02:30:24;8.13;;;4.63;;
35380;SDS011;21486;51.916;8.378;2023-08-06T02:32:49;8.50;;;4.88;;
35380;SDS011;21486;51.916;8.378;2023-08-06T02:35:15;8.93;;;4.60;;
35380;SDS011;21486;51.916;8.378;2023-08-06T02:37:40;7.93;;;4.90;;
35380;SDS011;21486;51.916;8.378;2023-08-06T02:40:06;8.70;;;4.82;;
35380;SDS011;21486;51.916;8.378;2023-08-06T02:42:32;5.95;;;4.13;;
35380;SDS011;21486;51.916;8.378;2023-08-06T02:44:58;8.00;;;4.45;;
35380;SDS011;21486;51.916;8.378;2023-08-06T02:47:23;5.72;;;4.50;;
35380;SDS011;21486;51.916;8.378;2023-08-06T02:49:49;8.10;;;4.03;;
35380;SDS011;21486;51.916;8.378;2023-08-06T02:52:14;5.88;;;4.47;;
35380;SDS011;21486;51.916;8.378;2023-08-06T02:54:40;7.90;;;4.10;;
35380;SDS011;21486;51.916;8.378;2023-08-06T02:57:05;7.27;;;4.43;;
35380;SDS011;21486;51.916;8.378;2023-08-06T02:59:31;8.30;;;4.95;;
35380;SDS011;21486;51.916;8.378;2023-08-06T03:01:57;6.07;;;4.47;;
35380;SDS011;21486;51.916;8.378;2023-08-06T03:04:23;6.90;;;4.28;;
35380;SDS011;21486;51.916;8.378;2023-08-06T03:06:49;9.00;;;5.13;;
35380;SDS011;21486;51.916;8.378;2023-08-06T03:09:15;9.10;;;4.83;;
35380;SDS011;21486;51.916;8.378;2023-08-06T03:11:41;6.80;;;5.00;;
35380;SDS011;21486;51.916;8.378;2023-08-06T03:14:06;8.27;;;4.60;;
35380;SDS011;21486;51.916;8.378;2023-08-06T03:16:32;8.73;;;4.93;;
35380;SDS011;21486;51.916;8.378;2023-08-06T03:18:57;6.93;;;4.90;;
35380;SDS011;21486;51.916;8.378;2023-08-06T03:21:23;11.20;;;4.50;;
35380;SDS011;21486;51.916;8.378;2023-08-06T03:23:49;10.75;;;5.28;;
35380;SDS011;21486;51.916;8.378;2023-08-06T03:26:14;6.80;;;4.63;;
35380;SDS011;21486;51.916;8.378;2023-08-06T03:28:40;6.83;;;5.17;;
35380;SDS011;21486;51.916;8.378;2023-08-06T03:31:05;10.07;;;5.90;;
35380;SDS011;21486;51.916;8.378;2023-08-06T03:33:31;8.33;;;4.80;;
35380;SDS011;21486;51.916;8.378;2023-08-06T03:35:57;10.37;;;5.33;;
35380;SDS011;21486;51.916;8.378;2023-08-06T03:38:22;6.93;;;4.90;;
35380;SDS011;21486;51.916;8.378;2023-08-06T03:40:48;8.20;;;4.70;;
35380;SDS011;21486;51.916;8.378;2023-08-06T03:43:14;7.15;;;4.32;;
35380;SDS011;21486;51.916;8.378;2023-08-06T03:45:40;10.68;;;4.70;;
35380;SDS011;21486;51.916;8.378;2023-08-06T03:48:06;6.03;;;4.60;;
35380;SDS011;21486;51.916;8.378;2023-08-06T03:50:32;6.53;;;4.95;;
35380;SDS011;21486;51.916;8.378;2023-08-06T03:52:58;6.80;;;4.63;;
35380;SDS011;21486;51.916;8.378;2023-08-06T03:55:23;9.37;;;5.03;;
35380;SDS011;21486;51.916;8.378;2023-08-06T03:57:49;8.13;;;4.82;;
35380;SDS011;21486;51.916;8.378;2023-08-06T04:00:14;8.20;;;4.67;;
35380;SDS011;21486;51.916;8.378;2023-08-06T04:02:40;7.20;;;4.93;;
35380;SDS011;21486;51.916;8.378;2023-08-06T04:05:06;6.95;;;4.80;;
35380;SDS011;21486;51.916;8.378;2023-08-06T04:07:32;6.90;;;4.80;;
35380;SDS011;21486;51.916;8.378;2023-08-06T04:09:58;9.05;;;5.00;;
35380;SDS011;21486;51.916;8.378;2023-08-06T04:12:25;6.80;;;4.82;;
35380;SDS011;21486;51.916;8.378;2023-08-06T04:14:51;8.23;;;4.70;;
35380;SDS011;21486;51.916;8.378;2023-08-06T04:17:18;6.80;;;4.90;;
35380;SDS011;21486;51.916;8.378;2023-08-06T04:19:50;6.23;;;4.80;;
35380;SDS011;21486;51.916;8.378;2023-08-06T04:22:16;7.55;;;4.80;;
35380;SDS011;21486;51.916;8.378;2023-08-06T04:24:42;7.55;;;4.68;;
35380;SDS011;21486;51.916;8.378;2023-08-06T04:27:08;9.07;;;4.82;;
35380;SDS011;21486;51.916;8.378;2023-08-06T04:29:35;9.50;;;5.03;;
35380;SDS011;21486;51.916;8.378;2023-08-06T04:32:01;7.32;;;5.07;;
35380;SDS011;21486;51.916;8.378;2023-08-06T04:34:26;11.57;;;5.22;;
35380;SDS011;21486;51.916;8.378;2023-08-06T04:36:52;8.82;;;5.55;;
35380;SDS011;21486;51.916;8.378;2023-08-06T04:39:17;9.37;;;5.00;;
35380;SDS011;21486;51.916;8.378;2023-08-06T04:41:43;9.93;;;5.43;;
35380;SDS011;21486;51.916;8.378;2023-08-06T04:44:09;10.35;;;5.55;;
35380;SDS011;21486;51.916;8.378;2023-08-06T04:46:34;9.07;;;5.57;;
35380;SDS011;21486;51.916;8.378;2023-08-06T04:49:00;14.27;;;6.60;;
35380;SDS011;21486;51.916;8.378;2023-08-06T04:51:25;12.27;;;6.00;;
35380;SDS011;21486;51.916;8.378;2023-08-06T04:53:51;15.77;;;5.50;;
35380;SDS011;21486;51.916;8.378;2023-08-06T04:56:17;9.30;;;5.73;;
35380;SDS011;21486;51.916;8.378;2023-08-06T04:58:42;10.80;;;5.77;;
35380;SDS011;21486;51.916;8.378;2023-08-06T05:01:08;12.57;;;5.55;;
35380;SDS011;21486;51.916;8.378;2023-08-06T05:03:33;12.80;;;5.88;;
35380;SDS011;21486;51.916;8.378;2023-08-06T05:05:59;10.50;;;5.17;;
35380;SDS011;21486;51.916;8.378;2023-08-06T05:08:24;10.25;;;5.55;;
35380;SDS011;21486;51.916;8.378;2023-08-06T05:10:50;8.13;;;5.10;;
35380;SDS011;21486;51.916;8.378;2023-08-06T05:13:15;8.67;;;5.13;;
35380;SDS011;21486;51.916;8.378;2023-08-06T05:15:41;7.68;;;4.95;;
35380;SDS011;21486;51.916;8.378;2023-08-06T05:18:07;9.18;;;5.75;;
35380;SDS011;21486;51.916;8.378;2023-08-06T05:20:36;8.32;;;5.30;;
35380;SDS011;21486;51.916;8.378;2023-08-06T05:23:03;8.45;;;4.57;;
35380;SDS011;21486;51.916;8.378;2023-08-06T05:25:29;6.55;;;4.43;;
35380;SDS011;21486;51.916;8.378;2023-08-06T05:27:55;10.40;;;4.60;;
35380;SDS011;21486;51.916;8.378;2023-08-06T05:30:20;7.35;;;4.57;;
35380;SDS011;21486;51.916;8.378;2023-08-06T05:32:46;7.33;;;4.93;;
35380;SDS011;21486;51.916;8.378;2023-08-06T05:35:11;7.90;;;4.93;;
35380;SDS011;21486;51.916;8.378;2023-08-06T05:37:37;9.27;;;5.75;;
35380;SDS011;21486;51.916;8.378;2023-08-06T05:40:03;9.60;;;5.60;;
35380;SDS011;21486;51.916;8.378;2023-08-06T05:42:29;9.73;;;5.35;;
35380;SDS011;21486;51.916;8.378;2023-08-06T05:44:55;8.48;;;5.53;;
35380;SDS011;21486;51.916;8.378;2023-08-06T05:47:20;9.17;;;5.63;;
35380;SDS011;21486;51.916;8.378;2023-08-06T05:49:46;8.63;;;5.70;;
35380;SDS011;21486;51.916;8.378;2023-08-06T05:52:11;9.30;;;5.20;;
35380;SDS011;21486;51.916;8.378;2023-08-06T05:54:37;13.57;;;5.37;;
35380;SDS011;21486;51.916;8.378;2023-08-06T05:57:03;8.65;;;5.40;;
35380;SDS011;21486;51.916;8.378;2023-08-06T05:59:29;8.65;;;4.93;;
35380;SDS011;21486;51.916;8.378;2023-08-06T06:01:54;9.23;;;4.32;;
35380;SDS011;21486;51.916;8.378;2023-08-06T06:04:20;12.60;;;6.03;;
35380;SDS011;21486;51.916;8.378;2023-08-06T06:06:46;10.83;;;4.40;;
35380;SDS011;21486;51.916;8.378;2023-08-06T06:09:11;5.47;;;4.30;;
35380;SDS011;21486;51.916;8.378;2023-08-06T06:11:37;6.32;;;3.72;;
35380;SDS011;21486;51.916;8.378;2023-08-06T06:14:02;7.50;;;4.00;;
35380;SDS011;21486;51.916;8.378;2023-08-06T06:16:28;6.63;;;3.85;;
35380;SDS011;21486;51.916;8.378;2023-08-06T06:18:53;6.03;;;3.70;;
35380;SDS011;21486;51.916;8.378;2023-08-06T06:21:19;7.35;;;3.80;;
35380;SDS011;21486;51.916;8.378;2023-08-06T06:23:45;6.53;;;3.53;;
35380;SDS011;21486;51.916;8.378;2023-08-06T06:26:10;6.07;;;4.05;;
35380;SDS011;21486;51.916;8.378;2023-08-06T06:28:37;5.55;;;4.00;;
35380;SDS011;21486;51.916;8.378;2023-08-06T06:31:03;4.67;;;3.50;;
35380;SDS011;21486;51.916;8.378;2023-08-06T06:33:29;5.33;;;3.70;;
35380;SDS011;21486;51.916;8.378;2023-08-06T06:35:55;6.50;;;4.40;;
35380;SDS011;21486;51.916;8.378;2023-08-06T06:38:20;5.47;;;3.80;;
35380;SDS011;21486;51.916;8.378;2023-08-06T06:40:55;5.07;;;3.80;;
35380;SDS011;21486;51.916;8.378;2023-08-06T06:43:21;5.75;;;4.03;;
35380;SDS011;21486;51.916;8.378;2023-08-06T06:45:47;4.82;;;3.75;;
35380;SDS011;21486;51.916;8.378;2023-08-06T06:48:18;7.65;;;4.00;;
35380;SDS011;21486;51.916;8.378;2023-08-06T06:50:47;5.85;;;3.83;;
35380;SDS011;21486;51.916;8.378;2023-08-06T06:53:13;6.40;;;4.40;;
35380;SDS011;21486;51.916;8.378;2023-08-06T06:55:39;6.18;;;3.65;;
35380;SDS011;21486;51.916;8.378;2023-08-06T06:58:04;4.80;;;3.40;;
35380;SDS011;21486;51.916;8.378;2023-08-06T07:00:30;4.35;;;3.45;;
35380;SDS011;21486;51.916;8.378;2023-08-06T07:02:55;6.53;;;4.10;;
35380;SDS011;21486;51.916;8.378;2023-08-06T07:05:21;6.33;;;3.60;;
35380;SDS011;21486;51.916;8.378;2023-08-06T07:07:46;4.57;;;3.50;;
35380;SDS011;21486;51.916;8.378;2023-08-06T07:10:12;5.40;;;3.37;;
35380;SDS011;21486;51.916;8.378;2023-08-06T07:12:37;4.97;;;3.20;;
35380;SDS011;21486;51.916;8.378;2023-08-06T07:15:04;4.10;;;3.17;;
35380;SDS011;21486;51.916;8.378;2023-08-06T07:17:31;4.63;;;3.13;;
35380;SDS011;21486;51.916;8.378;2023-08-06T07:19:56;4.35;;;2.97;;
35380;SDS011;21486;51.916;8.378;2023-08-06T07:22:22;4.53;;;2.83;;
35380;SDS011;21486;51.916;8.378;2023-08-06T07:24:47;4.32;;;2.47;;
35380;SDS011;21486;51.916;8.378;2023-08-06T07:27:13;3.00;;;2.30;;
35380;SDS011;21486;51.916;8.378;2023-08-06T07:29:38;4.78;;;2.65;;
35380;SDS011;21486;51.916;8.378;2023-08-06T07:32:05;3.70;;;2.50;;
35380;SDS011;21486;51.916;8.378;2023-08-06T07:34:32;4.60;;;2.25;;
35380;SDS011;21486;51.916;8.378;2023-08-06T07:36:57;3.37;;;2.10;;
35380;SDS011;21486;51.916;8.378;2023-08-06T07:39:23;4.57;;;2.20;;
35380;SDS011;21486;51.916;8.378;2023-08-06T07:41:49;3.80;;;2.67;;
35380;SDS011;21486;51.916;8.378;2023-08-06T07:44:14;2.90;;;2.30;;
35380;SDS011;21486;51.916;8.378;2023-08-06T07:46:40;4.93;;;2.33;;
35380;SDS011;21486;51.916;8.378;2023-08-06T07:49:06;3.17;;;2.50;;
35380;SDS011;21486;51.916;8.378;2023-08-06T07:51:31;3.25;;;2.47;;
35380;SDS011;21486;51.916;8.378;2023-08-06T07:53:57;2.63;;;2.20;;
35380;SDS011;21486;51.916;8.378;2023-08-06T07:56:22;3.08;;;2.08;;
35380;SDS011;21486;51.916;8.378;2023-08-06T07:58:48;2.30;;;2.00;;
35380;SDS011;21486;51.916;8.378;2023-08-06T08:01:14;5.40;;;2.10;;
35380;SDS011;21486;51.916;8.378;2023-08-06T08:03:39;4.47;;;1.87;;
35380;SDS011;21486;51.916;8.378;2023-08-06T08:06:05;3.00;;;1.90;;
35380;SDS011;21486;51.916;8.378;2023-08-06T08:08:30;1.60;;;1.33;;
35380;SDS011;21486;51.916;8.378;2023-08-06T08:10:56;2.22;;;1.40;;
35380;SDS011;21486;51.916;8.378;2023-08-06T08:13:23;2.80;;;1.50;;
35380;SDS011;21486;51.916;8.378;2023-08-06T08:15:49;2.22;;;1.40;;
35380;SDS011;21486;51.916;8.378;2023-08-06T08:18:15;3.30;;;1.60;;
35380;SDS011;21486;51.916;8.378;2023-08-06T08:20:40;4.78;;;2.00;;
35380;SDS011;21486;51.916;8.378;2023-08-06T08:23:06;3.13;;;2.10;;
35380;SDS011;21486;51.916;8.378;2023-08-06T08:25:31;2.63;;;1.80;;
35380;SDS011;21486;51.916;8.378;2023-08-06T08:27:57;2.20;;;1.67;;
35380;SDS011;21486;51.916;8.378;2023-08-06T08:30:22;1.80;;;1.60;;
35380;SDS011;21486;51.916;8.378;2023-08-06T08:32:49;4.35;;;1.90;;
35380;SDS011;21486;51.916;8.378;2023-08-06T08:35:15;2.85;;;1.60;;
35380;SDS011;21486;51.916;8.378;2023-08-06T08:37:41;3.27;;;1.60;;
35380;SDS011;21486;51.916;8.378;2023-08-06T08:40:08;2.58;;;1.90;;
35380;SDS011;21486;51.916;8.378;2023-08-06T08:42:35;2.50;;;1.60;;
35380;SDS011;21486;51.916;8.378;2023-08-06T08:45:02;2.88;;;1.80;;
35380;SDS011;21486;51.916;8.378;2023-08-06T08:47:29;3.60;;;1.70;;
35380;SDS011;21486;51.916;8.378;2023-08-06T08:49:56;2.05;;;1.60;;
35380;SDS011;21486;51.916;8.378;2023-08-06T08:52:23;3.95;;;1.80;;
35380;SDS011;21486;51.916;8.378;2023-08-06T08:54:52;3.53;;;1.90;;
35380;SDS011;21486;51.916;8.378;2023-08-06T08:57:19;5.13;;;1.50;;
35380;SDS011;21486;51.916;8.378;2023-08-06T08:59:45;1.77;;;1.33;;
35380;SDS011;21486;51.916;8.378;2023-08-06T09:02:11;2.43;;;1.60;;
35380;SDS011;21486;51.916;8.378;2023-08-06T09:04:40;1.85;;;1.40;;
35380;SDS011;21486;51.916;8.378;2023-08-06T09:07:06;3.25;;;1.33;;
35380;SDS011;21486;51.916;8.378;2023-08-06T09:09:35;2.05;;;1.58;;
35380;SDS011;21486;51.916;8.378;2023-08-06T09:12:06;2.40;;;1.60;;
35380;SDS011;21486;51.916;8.378;2023-08-06T09:14:37;5.38;;;2.40;;
35380;SDS011;21486;51.916;8.378;2023-08-06T09:17:03;3.47;;;2.27;;
35380;SDS011;21486;51.916;8.378;2023-08-06T09:19:30;2.63;;;1.83;;
35380;SDS011;21486;51.916;8.378;2023-08-06T09:21:56;4.20;;;2.08;;
35380;SDS011;21486;51.916;8.378;2023-08-06T09:24:22;4.20;;;2.17;;
35380;SDS011;21486;51.916;8.378;2023-08-06T09:26:47;3.43;;;1.90;;
35380;SDS011;21486;51.916;8.378;2023-08-06T09:29:13;5.43;;;1.95;;
35380;SDS011;21486;51.916;8.378;2023-08-06T09:31:43;2.60;;;2.13;;
35380;SDS011;21486;51.916;8.378;2023-08-06T09:34:17;3.58;;;2.30;;
35380;SDS011;21486;51.916;8.378;2023-08-06T09:36:53;3.63;;;2.17;;
35380;SDS011;21486;51.916;8.378;2023-08-06T09:39:26;3.50;;;2.33;;
35380;SDS011;21486;51.916;8.378;2023-08-06T09:41:57;3.35;;;1.90;;
